Aeroporto :
LOGIN :

Iscrizione | Disclaimer

   EN    FR    IT 

 










Sommario :    VFR   VFR Marginale   IFR   IFR Intensivo   IFR Molto Intensivo
Visibilità : 
Base nubi : 
>= 8 km
>= 3000ft
5 / 8 km
1000 / 3000 ft
1500m / 5 km
500 / 1000 ft
800 / 1500m
200 / 500 ft
< 800m
< 200 ft
Simboli :   Temporali  Nebbia  Neve Forte  Precipitazioni Forti  Vento > 20 kt
SIGMETs :   Varie  Temporali  Ghiacco  Turbolenza  Onda orograficha  Ceneri Vulcaniche







- Altitudine del aeroporto : 358 ft
- Carte del aeroporto


EGTC - Cranfield

ULTIMO METAR :
  • 230920Z 06007KT CAVOK 13/07 Q0998

METARs OBSOLETI :
  • 230850Z 06008KT CAVOK 13/08 Q0998
  • 230820Z 05007KT 8000 NSC 12/08 Q0998
  • 230750Z 04007KT 8000 NSC 12/08 Q0998
  • 230720Z 05006KT 8000 NSC 11/08 Q0998
  • 230650Z 05005KT 8000 NSC 10/07 Q0998

TAF TAF EGTC
Valido dal 23 a 09 ore il 23 a 18 ore UTC


230804Z 2309/2318 07005KT CAVOK
PROB40 2309/2312 9000
Nessun NOTAM noto per questo aeroporto.



MetMap, La meteo Aeronautica in un colpo d'occhio ! - Copyright ORBIFLY Dicembre 2007 - Disclaimer

ORBIFLY MET'MAP TEAM :

Programmazione e sviluppo : Alexandra Zaïnal
Concezione e sviluppo : Baudouin d'Aumeries
Co-Programmazione e sviluppo : Marc-Olivier Méhu
Supporto tecnico e logistico : Manuel Goepfert
Aiuto per la traduzione : Arnaldo La Scala

Contatto : metmap@orbifly.com




FONTI E CREDITI :

   NOAA